sensor_id;sensor_type;location;lat;lon;timestamp;P1;durP1;ratioP1;P2;durP2;ratioP2
4148;SDS011;2088;51.032;7.082;2024-01-15T00:01:07;23.10;;;7.47;;
4148;SDS011;2088;51.032;7.082;2024-01-15T00:03:34;27.30;;;8.50;;
4148;SDS011;2088;51.032;7.082;2024-01-15T00:06:01;15.37;;;6.70;;
4148;SDS011;2088;51.032;7.082;2024-01-15T00:08:29;20.50;;;8.37;;
4148;SDS011;2088;51.032;7.082;2024-01-15T00:10:56;24.67;;;8.10;;
4148;SDS011;2088;51.032;7.082;2024-01-15T00:13:23;18.67;;;6.37;;
4148;SDS011;2088;51.032;7.082;2024-01-15T00:15:51;25.30;;;8.30;;
4148;SDS011;2088;51.032;7.082;2024-01-15T00:18:18;18.27;;;5.80;;
4148;SDS011;2088;51.032;7.082;2024-01-15T00:20:45;19.57;;;7.10;;
4148;SDS011;2088;51.032;7.082;2024-01-15T00:23:12;27.73;;;7.17;;
4148;SDS011;2088;51.032;7.082;2024-01-15T00:25:40;26.73;;;8.23;;
4148;SDS011;2088;51.032;7.082;2024-01-15T00:28:08;20.20;;;7.23;;
4148;SDS011;2088;51.032;7.082;2024-01-15T00:30:35;18.60;;;7.53;;
4148;SDS011;2088;51.032;7.082;2024-01-15T00:33:03;16.50;;;7.17;;
4148;SDS011;2088;51.032;7.082;2024-01-15T00:35:31;13.37;;;6.63;;
4148;SDS011;2088;51.032;7.082;2024-01-15T00:37:58;22.23;;;7.83;;
4148;SDS011;2088;51.032;7.082;2024-01-15T00:40:25;24.37;;;7.43;;
4148;SDS011;2088;51.032;7.082;2024-01-15T00:42:52;19.90;;;7.67;;
4148;SDS011;2088;51.032;7.082;2024-01-15T00:45:19;19.63;;;6.70;;
4148;SDS011;2088;51.032;7.082;2024-01-15T00:47:46;21.30;;;7.93;;
4148;SDS011;2088;51.032;7.082;2024-01-15T00:50:15;17.37;;;7.90;;
4148;SDS011;2088;51.032;7.082;2024-01-15T00:52:42;18.70;;;8.23;;
4148;SDS011;2088;51.032;7.082;2024-01-15T00:55:09;28.30;;;8.83;;
4148;SDS011;2088;51.032;7.082;2024-01-15T00:57:36;14.57;;;7.57;;
4148;SDS011;2088;51.032;7.082;2024-01-15T01:00:03;14.80;;;7.70;;
4148;SDS011;2088;51.032;7.082;2024-01-15T01:02:31;28.40;;;9.23;;
4148;SDS011;2088;51.032;7.082;2024-01-15T01:04:58;17.27;;;8.70;;
4148;SDS011;2088;51.032;7.082;2024-01-15T01:07:26;20.63;;;8.13;;
4148;SDS011;2088;51.032;7.082;2024-01-15T01:09:53;21.70;;;9.03;;
4148;SDS011;2088;51.032;7.082;2024-01-15T01:12:21;25.97;;;8.47;;
4148;SDS011;2088;51.032;7.082;2024-01-15T01:14:48;33.07;;;8.93;;
4148;SDS011;2088;51.032;7.082;2024-01-15T01:17:15;13.17;;;7.13;;
4148;SDS011;2088;51.032;7.082;2024-01-15T01:19:42;19.40;;;7.43;;
4148;SDS011;2088;51.032;7.082;2024-01-15T01:22:09;21.63;;;8.50;;
4148;SDS011;2088;51.032;7.082;2024-01-15T01:24:37;20.43;;;8.33;;
4148;SDS011;2088;51.032;7.082;2024-01-15T01:27:04;16.70;;;7.63;;
4148;SDS011;2088;51.032;7.082;2024-01-15T01:29:32;26.60;;;8.93;;
4148;SDS011;2088;51.032;7.082;2024-01-15T01:31:59;22.67;;;8.50;;
4148;SDS011;2088;51.032;7.082;2024-01-15T01:34:26;18.13;;;7.53;;
4148;SDS011;2088;51.032;7.082;2024-01-15T01:36:53;24.60;;;8.33;;
4148;SDS011;2088;51.032;7.082;2024-01-15T01:39:20;18.77;;;6.23;;
4148;SDS011;2088;51.032;7.082;2024-01-15T01:41:48;32.57;;;10.00;;
4148;SDS011;2088;51.032;7.082;2024-01-15T01:44:15;18.93;;;7.20;;
4148;SDS011;2088;51.032;7.082;2024-01-15T01:46:42;50.03;;;11.10;;
4148;SDS011;2088;51.032;7.082;2024-01-15T01:49:10;38.57;;;9.67;;
4148;SDS011;2088;51.032;7.082;2024-01-15T01:51:37;22.60;;;7.17;;
4148;SDS011;2088;51.032;7.082;2024-01-15T01:54:05;20.20;;;8.13;;
4148;SDS011;2088;51.032;7.082;2024-01-15T01:56:33;20.33;;;7.23;;
4148;SDS011;2088;51.032;7.082;2024-01-15T01:59:01;17.33;;;7.00;;
4148;SDS011;2088;51.032;7.082;2024-01-15T02:01:29;29.37;;;8.40;;
4148;SDS011;2088;51.032;7.082;2024-01-15T02:03:56;20.63;;;8.20;;
4148;SDS011;2088;51.032;7.082;2024-01-15T02:06:23;23.03;;;9.20;;
4148;SDS011;2088;51.032;7.082;2024-01-15T02:08:50;25.40;;;9.20;;
4148;SDS011;2088;51.032;7.082;2024-01-15T02:11:17;25.70;;;7.13;;
4148;SDS011;2088;51.032;7.082;2024-01-15T02:13:45;22.93;;;7.87;;
4148;SDS011;2088;51.032;7.082;2024-01-15T02:16:13;22.53;;;8.83;;
4148;SDS011;2088;51.032;7.082;2024-01-15T02:18:40;17.33;;;7.27;;
4148;SDS011;2088;51.032;7.082;2024-01-15T02:21:07;21.70;;;7.20;;
4148;SDS011;2088;51.032;7.082;2024-01-15T02:23:36;24.60;;;8.90;;
4148;SDS011;2088;51.032;7.082;2024-01-15T02:26:03;28.07;;;8.90;;
4148;SDS011;2088;51.032;7.082;2024-01-15T02:28:31;15.10;;;7.17;;
4148;SDS011;2088;51.032;7.082;2024-01-15T02:30:59;19.83;;;6.93;;
4148;SDS011;2088;51.032;7.082;2024-01-15T02:33:26;19.20;;;7.57;;
4148;SDS011;2088;51.032;7.082;2024-01-15T02:35:53;14.67;;;6.80;;
4148;SDS011;2088;51.032;7.082;2024-01-15T02:38:20;14.90;;;8.67;;
4148;SDS011;2088;51.032;7.082;2024-01-15T02:40:49;18.70;;;8.40;;
4148;SDS011;2088;51.032;7.082;2024-01-15T02:43:16;15.33;;;6.70;;
4148;SDS011;2088;51.032;7.082;2024-01-15T02:45:44;21.67;;;7.53;;
4148;SDS011;2088;51.032;7.082;2024-01-15T02:48:12;21.00;;;7.40;;
4148;SDS011;2088;51.032;7.082;2024-01-15T02:50:39;21.20;;;8.90;;
4148;SDS011;2088;51.032;7.082;2024-01-15T02:53:06;22.47;;;9.43;;
4148;SDS011;2088;51.032;7.082;2024-01-15T02:55:33;23.13;;;10.07;;
4148;SDS011;2088;51.032;7.082;2024-01-15T02:58:01;20.57;;;7.70;;
4148;SDS011;2088;51.032;7.082;2024-01-15T03:00:28;23.40;;;8.77;;
4148;SDS011;2088;51.032;7.082;2024-01-15T03:02:56;18.97;;;7.63;;
4148;SDS011;2088;51.032;7.082;2024-01-15T03:05:23;24.10;;;9.27;;
4148;SDS011;2088;51.032;7.082;2024-01-15T03:07:50;17.57;;;7.87;;
4148;SDS011;2088;51.032;7.082;2024-01-15T03:10:17;17.33;;;6.40;;
4148;SDS011;2088;51.032;7.082;2024-01-15T03:12:44;20.40;;;7.60;;
4148;SDS011;2088;51.032;7.082;2024-01-15T03:15:12;22.60;;;7.13;;
4148;SDS011;2088;51.032;7.082;2024-01-15T03:17:40;15.40;;;8.10;;
4148;SDS011;2088;51.032;7.082;2024-01-15T03:20:08;13.50;;;6.20;;
4148;SDS011;2088;51.032;7.082;2024-01-15T03:22:36;37.63;;;7.77;;
4148;SDS011;2088;51.032;7.082;2024-01-15T03:25:03;14.90;;;6.63;;
4148;SDS011;2088;51.032;7.082;2024-01-15T03:27:30;18.93;;;7.20;;
4148;SDS011;2088;51.032;7.082;2024-01-15T03:29:57;11.73;;;5.70;;
4148;SDS011;2088;51.032;7.082;2024-01-15T03:32:25;14.43;;;6.03;;
4148;SDS011;2088;51.032;7.082;2024-01-15T03:34:52;22.93;;;8.63;;
4148;SDS011;2088;51.032;7.082;2024-01-15T03:37:19;19.33;;;7.10;;
4148;SDS011;2088;51.032;7.082;2024-01-15T03:39:46;20.80;;;7.03;;
4148;SDS011;2088;51.032;7.082;2024-01-15T03:42:14;16.50;;;6.80;;
4148;SDS011;2088;51.032;7.082;2024-01-15T03:44:41;20.23;;;6.93;;
4148;SDS011;2088;51.032;7.082;2024-01-15T03:47:08;15.83;;;8.17;;
4148;SDS011;2088;51.032;7.082;2024-01-15T03:49:37;22.63;;;6.50;;
4148;SDS011;2088;51.032;7.082;2024-01-15T03:52:04;18.53;;;7.70;;
4148;SDS011;2088;51.032;7.082;2024-01-15T03:54:31;18.90;;;7.77;;
4148;SDS011;2088;51.032;7.082;2024-01-15T03:56:59;15.10;;;7.70;;
4148;SDS011;2088;51.032;7.082;2024-01-15T03:59:26;29.80;;;8.60;;
4148;SDS011;2088;51.032;7.082;2024-01-15T04:01:53;15.37;;;6.97;;
4148;SDS011;2088;51.032;7.082;2024-01-15T04:04:20;24.10;;;7.03;;
4148;SDS011;2088;51.032;7.082;2024-01-15T04:06:48;20.67;;;6.77;;
4148;SDS011;2088;51.032;7.082;2024-01-15T04:09:15;19.60;;;6.27;;
4148;SDS011;2088;51.032;7.082;2024-01-15T04:11:42;22.63;;;7.07;;
4148;SDS011;2088;51.032;7.082;2024-01-15T04:14:09;14.87;;;6.87;;
4148;SDS011;2088;51.032;7.082;2024-01-15T04:16:37;19.00;;;8.93;;
4148;SDS011;2088;51.032;7.082;2024-01-15T04:19:04;15.53;;;6.93;;
4148;SDS011;2088;51.032;7.082;2024-01-15T04:21:31;13.27;;;6.47;;
4148;SDS011;2088;51.032;7.082;2024-01-15T04:23:59;20.30;;;7.70;;
4148;SDS011;2088;51.032;7.082;2024-01-15T04:26:26;16.53;;;6.23;;
4148;SDS011;2088;51.032;7.082;2024-01-15T04:28:53;20.23;;;7.80;;
4148;SDS011;2088;51.032;7.082;2024-01-15T04:31:21;21.50;;;7.53;;
4148;SDS011;2088;51.032;7.082;2024-01-15T04:33:49;16.00;;;6.73;;
4148;SDS011;2088;51.032;7.082;2024-01-15T04:36:16;18.20;;;8.03;;
4148;SDS011;2088;51.032;7.082;2024-01-15T04:38:43;16.43;;;6.50;;
4148;SDS011;2088;51.032;7.082;2024-01-15T04:41:12;21.17;;;6.70;;
4148;SDS011;2088;51.032;7.082;2024-01-15T04:43:39;18.60;;;8.30;;
4148;SDS011;2088;51.032;7.082;2024-01-15T04:46:06;8.20;;;5.57;;
4148;SDS011;2088;51.032;7.082;2024-01-15T04:48:33;16.47;;;6.90;;
4148;SDS011;2088;51.032;7.082;2024-01-15T04:51:01;18.17;;;8.30;;
4148;SDS011;2088;51.032;7.082;2024-01-15T04:53:30;19.20;;;6.77;;
4148;SDS011;2088;51.032;7.082;2024-01-15T04:55:57;13.40;;;7.57;;
4148;SDS011;2088;51.032;7.082;2024-01-15T04:58:25;17.60;;;5.93;;
4148;SDS011;2088;51.032;7.082;2024-01-15T05:00:52;20.30;;;8.67;;
4148;SDS011;2088;51.032;7.082;2024-01-15T05:03:20;10.70;;;5.50;;
4148;SDS011;2088;51.032;7.082;2024-01-15T05:05:47;14.97;;;5.73;;
4148;SDS011;2088;51.032;7.082;2024-01-15T05:08:14;19.10;;;6.60;;
4148;SDS011;2088;51.032;7.082;2024-01-15T05:10:41;12.43;;;6.10;;
4148;SDS011;2088;51.032;7.082;2024-01-15T05:13:08;16.13;;;4.67;;
4148;SDS011;2088;51.032;7.082;2024-01-15T05:15:36;8.30;;;5.03;;
4148;SDS011;2088;51.032;7.082;2024-01-15T05:18:04;8.17;;;5.07;;
4148;SDS011;2088;51.032;7.082;2024-01-15T05:20:31;15.93;;;5.00;;
4148;SDS011;2088;51.032;7.082;2024-01-15T05:22:58;24.50;;;4.80;;
4148;SDS011;2088;51.032;7.082;2024-01-15T05:25:25;11.00;;;5.70;;
4148;SDS011;2088;51.032;7.082;2024-01-15T05:27:52;12.73;;;5.27;;
4148;SDS011;2088;51.032;7.082;2024-01-15T05:30:19;16.50;;;6.93;;
4148;SDS011;2088;51.032;7.082;2024-01-15T05:32:47;13.97;;;7.73;;
4148;SDS011;2088;51.032;7.082;2024-01-15T05:35:15;20.93;;;6.10;;
4148;SDS011;2088;51.032;7.082;2024-01-15T05:37:43;10.97;;;4.83;;
4148;SDS011;2088;51.032;7.082;2024-01-15T05:40:11;12.43;;;5.70;;
4148;SDS011;2088;51.032;7.082;2024-01-15T05:42:38;23.10;;;6.13;;
4148;SDS011;2088;51.032;7.082;2024-01-15T05:45:05;17.93;;;5.80;;
4148;SDS011;2088;51.032;7.082;2024-01-15T05:47:33;10.23;;;5.70;;
4148;SDS011;2088;51.032;7.082;2024-01-15T05:50:01;19.67;;;6.57;;
4148;SDS011;2088;51.032;7.082;2024-01-15T05:52:28;10.73;;;6.30;;
4148;SDS011;2088;51.032;7.082;2024-01-15T05:54:55;10.80;;;6.07;;
4148;SDS011;2088;51.032;7.082;2024-01-15T05:57:22;10.30;;;4.70;;
4148;SDS011;2088;51.032;7.082;2024-01-15T05:59:49;15.20;;;5.90;;
4148;SDS011;2088;51.032;7.082;2024-01-15T06:02:16;11.30;;;5.87;;
4148;SDS011;2088;51.032;7.082;2024-01-15T06:04:43;9.27;;;4.33;;
4148;SDS011;2088;51.032;7.082;2024-01-15T06:07:12;14.90;;;4.60;;
4148;SDS011;2088;51.032;7.082;2024-01-15T06:09:39;24.73;;;4.57;;
4148;SDS011;2088;51.032;7.082;2024-01-15T06:12:07;12.00;;;3.73;;
4148;SDS011;2088;51.032;7.082;2024-01-15T06:14:34;11.47;;;4.70;;
4148;SDS011;2088;51.032;7.082;2024-01-15T06:17:01;6.00;;;3.97;;
4148;SDS011;2088;51.032;7.082;2024-01-15T06:19:28;7.37;;;4.47;;
4148;SDS011;2088;51.032;7.082;2024-01-15T06:21:55;16.60;;;4.80;;
4148;SDS011;2088;51.032;7.082;2024-01-15T06:24:23;6.63;;;4.20;;
4148;SDS011;2088;51.032;7.082;2024-01-15T06:26:50;7.17;;;4.60;;
4148;SDS011;2088;51.032;7.082;2024-01-15T06:29:18;12.70;;;5.70;;
4148;SDS011;2088;51.032;7.082;2024-01-15T06:31:45;7.13;;;4.70;;
4148;SDS011;2088;51.032;7.082;2024-01-15T06:34:12;7.77;;;4.80;;
4148;SDS011;2088;51.032;7.082;2024-01-15T06:36:39;7.77;;;4.50;;
4148;SDS011;2088;51.032;7.082;2024-01-15T06:39:06;14.33;;;4.23;;
4148;SDS011;2088;51.032;7.082;2024-01-15T06:41:36;12.53;;;5.17;;
4148;SDS011;2088;51.032;7.082;2024-01-15T06:44:08;20.37;;;4.67;;
4148;SDS011;2088;51.032;7.082;2024-01-15T06:46:35;7.30;;;3.70;;
4148;SDS011;2088;51.032;7.082;2024-01-15T06:49:02;12.30;;;4.63;;
4148;SDS011;2088;51.032;7.082;2024-01-15T06:51:29;6.87;;;4.70;;
4148;SDS011;2088;51.032;7.082;2024-01-15T06:53:56;11.80;;;4.50;;
4148;SDS011;2088;51.032;7.082;2024-01-15T06:56:23;12.20;;;4.60;;
4148;SDS011;2088;51.032;7.082;2024-01-15T06:58:51;4.97;;;4.47;;
4148;SDS011;2088;51.032;7.082;2024-01-15T07:01:18;6.90;;;4.20;;
4148;SDS011;2088;51.032;7.082;2024-01-15T07:03:45;8.70;;;4.43;;
4148;SDS011;2088;51.032;7.082;2024-01-15T07:06:13;13.70;;;4.13;;
4148;SDS011;2088;51.032;7.082;2024-01-15T07:08:40;11.40;;;3.47;;
4148;SDS011;2088;51.032;7.082;2024-01-15T07:11:07;10.97;;;5.57;;
4148;SDS011;2088;51.032;7.082;2024-01-15T07:13:35;7.30;;;4.03;;
4148;SDS011;2088;51.032;7.082;2024-01-15T07:16:04;5.87;;;3.87;;
4148;SDS011;2088;51.032;7.082;2024-01-15T07:18:32;9.40;;;4.57;;
4148;SDS011;2088;51.032;7.082;2024-01-15T07:20:59;11.80;;;5.80;;
4148;SDS011;2088;51.032;7.082;2024-01-15T07:23:27;10.37;;;5.97;;
4148;SDS011;2088;51.032;7.082;2024-01-15T07:25:54;8.57;;;4.97;;
4148;SDS011;2088;51.032;7.082;2024-01-15T07:28:21;15.40;;;6.60;;
4148;SDS011;2088;51.032;7.082;2024-01-15T07:30:49;10.70;;;4.80;;
4148;SDS011;2088;51.032;7.082;2024-01-15T07:33:18;10.03;;;5.17;;
4148;SDS011;2088;51.032;7.082;2024-01-15T07:35:45;17.43;;;5.60;;
4148;SDS011;2088;51.032;7.082;2024-01-15T07:38:12;11.63;;;5.20;;
4148;SDS011;2088;51.032;7.082;2024-01-15T07:40:39;10.13;;;5.73;;
4148;SDS011;2088;51.032;7.082;2024-01-15T07:43:06;13.00;;;5.80;;
4148;SDS011;2088;51.032;7.082;2024-01-15T07:45:33;10.07;;;4.57;;
4148;SDS011;2088;51.032;7.082;2024-01-15T07:48:00;12.13;;;4.80;;
4148;SDS011;2088;51.032;7.082;2024-01-15T07:50:30;13.00;;;6.03;;
4148;SDS011;2088;51.032;7.082;2024-01-15T07:52:57;16.17;;;5.30;;
4148;SDS011;2088;51.032;7.082;2024-01-15T07:55:24;18.50;;;5.67;;
4148;SDS011;2088;51.032;7.082;2024-01-15T07:57:51;17.80;;;5.10;;
4148;SDS011;2088;51.032;7.082;2024-01-15T08:00:23;7.33;;;4.93;;
4148;SDS011;2088;51.032;7.082;2024-01-15T08:02:50;14.00;;;6.03;;
4148;SDS011;2088;51.032;7.082;2024-01-15T08:05:18;6.50;;;4.63;;
4148;SDS011;2088;51.032;7.082;2024-01-15T08:07:47;20.90;;;5.70;;
4148;SDS011;2088;51.032;7.082;2024-01-15T08:10:14;21.87;;;6.20;;
4148;SDS011;2088;51.032;7.082;2024-01-15T08:12:41;9.87;;;5.67;;
4148;SDS011;2088;51.032;7.082;2024-01-15T08:15:08;12.73;;;6.13;;
4148;SDS011;2088;51.032;7.082;2024-01-15T08:17:35;8.97;;;4.50;;
4148;SDS011;2088;51.032;7.082;2024-01-15T08:20:03;9.20;;;4.83;;
4148;SDS011;2088;51.032;7.082;2024-01-15T08:22:30;13.17;;;6.10;;
4148;SDS011;2088;51.032;7.082;2024-01-15T08:24:58;9.73;;;5.30;;
4148;SDS011;2088;51.032;7.082;2024-01-15T08:27:25;13.00;;;6.23;;
4148;SDS011;2088;51.032;7.082;2024-01-15T08:29:53;18.07;;;6.20;;
4148;SDS011;2088;51.032;7.082;2024-01-15T08:32:20;22.73;;;6.10;;
4148;SDS011;2088;51.032;7.082;2024-01-15T08:34:47;20.80;;;6.47;;
4148;SDS011;2088;51.032;7.082;2024-01-15T08:37:17;13.30;;;7.40;;
4148;SDS011;2088;51.032;7.082;2024-01-15T08:39:44;11.90;;;5.50;;
4148;SDS011;2088;51.032;7.082;2024-01-15T08:42:12;13.97;;;6.90;;
4148;SDS011;2088;51.032;7.082;2024-01-15T08:44:39;18.60;;;7.07;;
4148;SDS011;2088;51.032;7.082;2024-01-15T08:47:08;13.73;;;8.20;;
4148;SDS011;2088;51.032;7.082;2024-01-15T08:49:35;23.70;;;7.57;;
4148;SDS011;2088;51.032;7.082;2024-01-15T08:52:02;14.40;;;7.60;;
4148;SDS011;2088;51.032;7.082;2024-01-15T08:54:29;20.80;;;7.77;;
4148;SDS011;2088;51.032;7.082;2024-01-15T08:56:56;9.70;;;5.83;;
4148;SDS011;2088;51.032;7.082;2024-01-15T08:59:24;16.43;;;6.40;;
4148;SDS011;2088;51.032;7.082;2024-01-15T09:01:51;10.60;;;6.10;;
4148;SDS011;2088;51.032;7.082;2024-01-15T09:04:18;18.40;;;7.13;;
4148;SDS011;2088;51.032;7.082;2024-01-15T09:06:46;14.03;;;5.83;;
4148;SDS011;2088;51.032;7.082;2024-01-15T09:09:13;11.30;;;6.80;;
4148;SDS011;2088;51.032;7.082;2024-01-15T09:11:40;12.17;;;5.60;;
4148;SDS011;2088;51.032;7.082;2024-01-15T09:14:07;11.13;;;5.70;;
4148;SDS011;2088;51.032;7.082;2024-01-15T09:16:36;11.67;;;7.30;;
4148;SDS011;2088;51.032;7.082;2024-01-15T09:19:03;14.87;;;6.50;;
4148;SDS011;2088;51.032;7.082;2024-01-15T09:21:30;13.57;;;6.17;;
4148;SDS011;2088;51.032;7.082;2024-01-15T09:23:57;17.47;;;7.03;;
4148;SDS011;2088;51.032;7.082;2024-01-15T09:26:24;12.00;;;5.73;;
4148;SDS011;2088;51.032;7.082;2024-01-15T09:28:51;13.07;;;7.13;;
4148;SDS011;2088;51.032;7.082;2024-01-15T09:31:18;13.03;;;7.20;;
4148;SDS011;2088;51.032;7.082;2024-01-15T09:33:47;11.93;;;5.23;;
4148;SDS011;2088;51.032;7.082;2024-01-15T09:36:16;12.30;;;5.57;;
4148;SDS011;2088;51.032;7.082;2024-01-15T09:38:43;9.90;;;5.90;;
4148;SDS011;2088;51.032;7.082;2024-01-15T09:41:10;10.77;;;6.00;;
4148;SDS011;2088;51.032;7.082;2024-01-15T09:43:37;6.53;;;4.70;;
4148;SDS011;2088;51.032;7.082;2024-01-15T09:46:05;11.33;;;5.30;;
4148;SDS011;2088;51.032;7.082;2024-01-15T09:48:33;8.70;;;4.50;;
4148;SDS011;2088;51.032;7.082;2024-01-15T09:51:02;13.10;;;5.27;;
4148;SDS011;2088;51.032;7.082;2024-01-15T09:53:29;10.63;;;5.33;;
4148;SDS011;2088;51.032;7.082;2024-01-15T09:55:57;11.30;;;6.43;;
4148;SDS011;2088;51.032;7.082;2024-01-15T09:58:24;9.23;;;5.37;;
4148;SDS011;2088;51.032;7.082;2024-01-15T10:00:54;12.03;;;5.50;;
4148;SDS011;2088;51.032;7.082;2024-01-15T10:03:21;14.10;;;6.60;;
4148;SDS011;2088;51.032;7.082;2024-01-15T10:05:48;19.50;;;6.37;;
4148;SDS011;2088;51.032;7.082;2024-01-15T10:08:17;11.33;;;6.07;;
4148;SDS011;2088;51.032;7.082;2024-01-15T10:10:44;10.07;;;5.23;;
4148;SDS011;2088;51.032;7.082;2024-01-15T10:13:11;8.43;;;5.07;;
4148;SDS011;2088;51.032;7.082;2024-01-15T10:15:39;11.87;;;5.43;;
4148;SDS011;2088;51.032;7.082;2024-01-15T10:18:07;6.30;;;4.93;;
4148;SDS011;2088;51.032;7.082;2024-01-15T10:20:35;8.50;;;4.83;;
4148;SDS011;2088;51.032;7.082;2024-01-15T10:23:02;6.70;;;3.60;;
4148;SDS011;2088;51.032;7.082;2024-01-15T10:25:31;6.77;;;4.33;;
4148;SDS011;2088;51.032;7.082;2024-01-15T10:27:59;6.03;;;4.07;;
4148;SDS011;2088;51.032;7.082;2024-01-15T10:30:26;9.07;;;4.00;;
4148;SDS011;2088;51.032;7.082;2024-01-15T10:32:57;13.07;;;4.10;;
4148;SDS011;2088;51.032;7.082;2024-01-15T10:35:26;6.93;;;4.20;;
4148;SDS011;2088;51.032;7.082;2024-01-15T10:37:53;6.20;;;3.93;;
4148;SDS011;2088;51.032;7.082;2024-01-15T10:40:20;5.10;;;3.10;;
4148;SDS011;2088;51.032;7.082;2024-01-15T10:42:49;6.63;;;4.43;;
4148;SDS011;2088;51.032;7.082;2024-01-15T10:45:16;7.77;;;4.83;;
4148;SDS011;2088;51.032;7.082;2024-01-15T10:47:43;6.77;;;4.07;;
4148;SDS011;2088;51.032;7.082;2024-01-15T10:50:11;5.73;;;3.87;;
4148;SDS011;2088;51.032;7.082;2024-01-15T10:52:39;9.07;;;5.10;;
4148;SDS011;2088;51.032;7.082;2024-01-15T10:55:06;6.57;;;4.23;;
4148;SDS011;2088;51.032;7.082;2024-01-15T10:57:35;5.57;;;4.30;;
4148;SDS011;2088;51.032;7.082;2024-01-15T11:00:04;13.77;;;5.47;;
4148;SDS011;2088;51.032;7.082;2024-01-15T11:02:32;10.90;;;4.57;;
4148;SDS011;2088;51.032;7.082;2024-01-15T11:04:59;6.90;;;3.90;;
4148;SDS011;2088;51.032;7.082;2024-01-15T11:07:26;9.73;;;5.03;;
4148;SDS011;2088;51.032;7.082;2024-01-15T11:09:53;13.73;;;5.57;;
4148;SDS011;2088;51.032;7.082;2024-01-15T11:12:23;12.37;;;6.53;;
4148;SDS011;2088;51.032;7.082;2024-01-15T11:14:50;9.40;;;5.97;;
4148;SDS011;2088;51.032;7.082;2024-01-15T11:17:21;7.30;;;4.27;;
4148;SDS011;2088;51.032;7.082;2024-01-15T11:19:48;5.17;;;4.43;;
4148;SDS011;2088;51.032;7.082;2024-01-15T11:25:02;3.70;;;2.63;;
4148;SDS011;2088;51.032;7.082;2024-01-15T11:27:39;2.10;;;1.87;;
4148;SDS011;2088;51.032;7.082;2024-01-15T11:30:08;3.20;;;2.53;;
4148;SDS011;2088;51.032;7.082;2024-01-15T11:32:37;2.53;;;1.97;;
4148;SDS011;2088;51.032;7.082;2024-01-15T11:35:06;5.00;;;2.43;;
4148;SDS011;2088;51.032;7.082;2024-01-15T11:40:17;3.83;;;1.73;;
4148;SDS011;2088;51.032;7.082;2024-01-15T11:42:45;2.03;;;1.60;;
4148;SDS011;2088;51.032;7.082;2024-01-15T11:45:12;6.30;;;2.80;;
4148;SDS011;2088;51.032;7.082;2024-01-15T11:50:25;9.03;;;2.13;;
4148;SDS011;2088;51.032;7.082;2024-01-15T11:52:56;4.90;;;3.10;;
4148;SDS011;2088;51.032;7.082;2024-01-15T11:55:26;3.17;;;2.77;;
4148;SDS011;2088;51.032;7.082;2024-01-15T11:57:54;3.90;;;2.80;;
4148;SDS011;2088;51.032;7.082;2024-01-15T12:00:21;4.77;;;3.37;;
4148;SDS011;2088;51.032;7.082;2024-01-15T12:02:49;2.43;;;1.80;;
4148;SDS011;2088;51.032;7.082;2024-01-15T12:05:17;5.27;;;2.90;;
4148;SDS011;2088;51.032;7.082;2024-01-15T12:07:46;4.00;;;2.87;;
4148;SDS011;2088;51.032;7.082;2024-01-15T12:10:14;3.87;;;3.00;;
4148;SDS011;2088;51.032;7.082;2024-01-15T12:12:47;6.57;;;3.03;;
4148;SDS011;2088;51.032;7.082;2024-01-15T12:15:18;2.97;;;2.20;;
4148;SDS011;2088;51.032;7.082;2024-01-15T12:17:45;6.40;;;2.93;;
4148;SDS011;2088;51.032;7.082;2024-01-15T12:20:13;3.40;;;2.80;;
4148;SDS011;2088;51.032;7.082;2024-01-15T12:22:40;4.10;;;2.87;;
4148;SDS011;2088;51.032;7.082;2024-01-15T12:25:09;4.37;;;2.87;;
4148;SDS011;2088;51.032;7.082;2024-01-15T12:27:37;9.13;;;3.80;;
4148;SDS011;2088;51.032;7.082;2024-01-15T12:30:04;8.33;;;3.43;;
4148;SDS011;2088;51.032;7.082;2024-01-15T12:32:32;10.07;;;4.90;;
4148;SDS011;2088;51.032;7.082;2024-01-15T12:35:00;5.37;;;3.10;;
4148;SDS011;2088;51.032;7.082;2024-01-15T12:37:27;9.40;;;3.87;;
4148;SDS011;2088;51.032;7.082;2024-01-15T12:39:54;14.23;;;4.50;;
4148;SDS011;2088;51.032;7.082;2024-01-15T12:42:22;5.23;;;3.97;;
4148;SDS011;2088;51.032;7.082;2024-01-15T12:44:49;6.87;;;4.00;;
4148;SDS011;2088;51.032;7.082;2024-01-15T12:47:16;6.50;;;3.73;;
4148;SDS011;2088;51.032;7.082;2024-01-15T12:49:46;11.97;;;4.37;;
4148;SDS011;2088;51.032;7.082;2024-01-15T12:52:15;7.00;;;3.50;;
4148;SDS011;2088;51.032;7.082;2024-01-15T12:54:42;5.20;;;3.50;;
4148;SDS011;2088;51.032;7.082;2024-01-15T12:57:09;5.70;;;4.13;;
4148;SDS011;2088;51.032;7.082;2024-01-15T12:59:37;4.33;;;3.50;;
4148;SDS011;2088;51.032;7.082;2024-01-15T13:02:04;5.03;;;3.30;;
4148;SDS011;2088;51.032;7.082;2024-01-15T13:04:32;7.30;;;3.80;;
4148;SDS011;2088;51.032;7.082;2024-01-15T13:06:59;4.60;;;3.13;;
4148;SDS011;2088;51.032;7.082;2024-01-15T13:09:26;5.90;;;4.20;;
4148;SDS011;2088;51.032;7.082;2024-01-15T13:11:53;5.70;;;3.73;;
4148;SDS011;2088;51.032;7.082;2024-01-15T13:14:20;10.20;;;3.80;;
4148;SDS011;2088;51.032;7.082;2024-01-15T13:16:49;3.03;;;2.77;;
4148;SDS011;2088;51.032;7.082;2024-01-15T13:19:16;14.70;;;3.87;;
4148;SDS011;2088;51.032;7.082;2024-01-15T13:21:44;6.10;;;4.30;;
4148;SDS011;2088;51.032;7.082;2024-01-15T13:24:11;4.80;;;3.93;;
4148;SDS011;2088;51.032;7.082;2024-01-15T13:26:39;6.23;;;3.40;;
4148;SDS011;2088;51.032;7.082;2024-01-15T13:29:06;4.50;;;3.70;;
4148;SDS011;2088;51.032;7.082;2024-01-15T13:31:33;6.77;;;2.90;;
4148;SDS011;2088;51.032;7.082;2024-01-15T13:34:02;2.80;;;2.30;;
4148;SDS011;2088;51.032;7.082;2024-01-15T13:36:29;9.63;;;3.60;;
4148;SDS011;2088;51.032;7.082;2024-01-15T13:38:56;3.63;;;3.00;;
4148;SDS011;2088;51.032;7.082;2024-01-15T13:41:24;9.83;;;2.60;;
4148;SDS011;2088;51.032;7.082;2024-01-15T13:43:52;2.83;;;2.63;;
4148;SDS011;2088;51.032;7.082;2024-01-15T13:46:20;7.07;;;4.57;;
4148;SDS011;2088;51.032;7.082;2024-01-15T13:48:48;3.50;;;3.20;;
4148;SDS011;2088;51.032;7.082;2024-01-15T13:51:16;2.77;;;2.30;;
4148;SDS011;2088;51.032;7.082;2024-01-15T13:53:43;13.33;;;2.20;;
4148;SDS011;2088;51.032;7.082;2024-01-15T13:56:10;2.77;;;2.57;;
4148;SDS011;2088;51.032;7.082;2024-01-15T13:58:37;2.70;;;2.50;;
4148;SDS011;2088;51.032;7.082;2024-01-15T14:01:04;9.63;;;2.63;;
4148;SDS011;2088;51.032;7.082;2024-01-15T14:03:31;7.73;;;3.50;;
4148;SDS011;2088;51.032;7.082;2024-01-15T14:05:58;4.17;;;2.80;;
4148;SDS011;2088;51.032;7.082;2024-01-15T14:08:29;8.83;;;4.23;;
4148;SDS011;2088;51.032;7.082;2024-01-15T14:10:56;3.00;;;2.80;;
4148;SDS011;2088;51.032;7.082;2024-01-15T14:13:23;6.17;;;3.00;;
4148;SDS011;2088;51.032;7.082;2024-01-15T14:15:50;2.83;;;2.30;;
4148;SDS011;2088;51.032;7.082;2024-01-15T14:18:17;2.60;;;2.00;;
4148;SDS011;2088;51.032;7.082;2024-01-15T14:20:44;4.70;;;2.00;;
4148;SDS011;2088;51.032;7.082;2024-01-15T14:23:12;2.47;;;2.27;;
4148;SDS011;2088;51.032;7.082;2024-01-15T14:25:40;5.50;;;3.40;;
4148;SDS011;2088;51.032;7.082;2024-01-15T14:28:07;4.90;;;4.40;;
4148;SDS011;2088;51.032;7.082;2024-01-15T14:30:35;2.83;;;2.63;;
4148;SDS011;2088;51.032;7.082;2024-01-15T14:33:02;4.27;;;1.70;;
4148;SDS011;2088;51.032;7.082;2024-01-15T14:35:30;2.83;;;2.63;;
4148;SDS011;2088;51.032;7.082;2024-01-15T14:37:57;2.80;;;2.50;;
4148;SDS011;2088;51.032;7.082;2024-01-15T14:40:24;2.37;;;1.70;;
4148;SDS011;2088;51.032;7.082;2024-01-15T14:42:53;2.03;;;1.80;;
4148;SDS011;2088;51.032;7.082;2024-01-15T14:45:20;1.80;;;1.50;;
4148;SDS011;2088;51.032;7.082;2024-01-15T14:47:47;1.87;;;1.67;;
4148;SDS011;2088;51.032;7.082;2024-01-15T14:50:14;4.03;;;2.20;;
4148;SDS011;2088;51.032;7.082;2024-01-15T14:52:41;1.50;;;1.40;;
4148;SDS011;2088;51.032;7.082;2024-01-15T14:55:09;2.70;;;1.80;;
4148;SDS011;2088;51.032;7.082;2024-01-15T14:57:36;22.37;;;2.60;;
4148;SDS011;2088;51.032;7.082;2024-01-15T15:00:05;2.47;;;1.80;;
4148;SDS011;2088;51.032;7.082;2024-01-15T15:02:33;1.70;;;1.43;;
4148;SDS011;2088;51.032;7.082;2024-01-15T15:05:01;4.10;;;2.00;;
4148;SDS011;2088;51.032;7.082;2024-01-15T15:07:28;7.47;;;3.37;;
4148;SDS011;2088;51.032;7.082;2024-01-15T15:09:55;1.77;;;1.67;;
4148;SDS011;2088;51.032;7.082;2024-01-15T15:12:22;3.50;;;2.30;;
4148;SDS011;2088;51.032;7.082;2024-01-15T15:14:49;1.50;;;1.40;;
4148;SDS011;2088;51.032;7.082;2024-01-15T15:17:17;1.50;;;1.30;;